Time;durP1;ratioP1;P1;durP2;ratioP2;P2;SDS_P1;SDS_P2;PMS_P1;PMS_P2;Temp;Humidity;BMP_temperature;BMP_pressure;BME280_temperature;BME280_humidity;BME280_pressure;Samples;Min_cycle;Max_cycle;Signal;HPM_P1;HPM_P2
2021/04/12 00:01:52;;;;;;;1.60;1.50;;;7.40;99.90;;;;;;4714829;30;20440;-77
2021/04/12 00:04:26;;;;;;;1.67;1.50;;;7.40;99.90;;;;;;4711661;30;20497;-77
2021/04/12 00:07:03;;;;;;;1.60;1.40;;;7.50;99.90;;;;;;4721358;30;20872;-78
2021/04/12 00:09:43;;;;;;;1.70;1.60;;;7.40;99.90;;;;;;4715322;30;20452;-77
2021/04/12 00:12:13;;;;;;;1.60;1.50;;;7.40;99.90;;;;;;4714611;30;20432;-77
2021/04/12 00:14:56;;;;;;;1.60;1.50;;;7.40;99.90;;;;;;4746056;30;20805;-76
2021/04/12 00:17:29;;;;;;;1.93;1.77;;;7.40;99.90;;;;;;4688793;30;20432;-77
2021/04/12 00:20:08;;;;;;;1.50;1.40;;;7.40;99.90;;;;;;4706306;30;20425;-76
2021/04/12 00:22:51;;;;;;;1.63;1.52;;;7.30;99.90;;;;;;4705203;30;20915;-76
2021/04/12 00:25:26;;;;;;;1.75;1.60;;;7.20;99.90;;;;;;4714572;30;20426;-76
2021/04/12 00:28:12;;;;;;;1.33;1.33;;;7.10;99.90;;;;;;4699698;30;20426;-77
2021/04/12 00:30:52;;;;;;;1.55;1.45;;;6.90;99.90;;;;;;4736352;30;20416;-76
2021/04/12 00:33:34;;;;;;;1.58;1.48;;;6.90;99.90;;;;;;4715011;30;20437;-78
2021/04/12 00:36:19;;;;;;;1.60;1.50;;;6.70;99.90;;;;;;4731087;30;20437;-77
2021/04/12 00:39:04;;;;;;;1.50;1.40;;;6.70;99.90;;;;;;4724724;30;20935;-77
2021/04/12 00:41:54;;;;;;;1.70;1.60;;;6.60;99.90;;;;;;4704267;30;20446;-77
2021/04/12 00:44:34;;;;;;;1.80;1.70;;;6.60;99.90;;;;;;4705543;30;20428;-78
2021/04/12 00:47:19;;;;;;;1.35;1.30;;;6.50;99.90;;;;;;4729224;30;20447;-76
2021/04/12 00:50:04;;;;;;;1.80;1.70;;;6.50;99.90;;;;;;4715494;30;20432;-77
2021/04/12 00:53:05;;;;;;;1.80;1.70;;;6.40;99.90;;;;;;4722469;30;20513;-77
2021/04/12 00:55:40;;;;;;;1.70;1.60;;;6.40;99.90;;;;;;4729750;30;20416;-76
2021/04/12 00:58:10;;;;;;;2.20;2.00;;;6.50;99.90;;;;;;4697519;30;21142;-76
2021/04/12 01:01:06;;;;;;;1.80;1.70;;;6.40;99.90;;;;;;4708976;30;20421;-76
2021/04/12 01:03:54;;;;;;;1.70;1.60;;;6.40;99.90;;;;;;4674867;30;20443;-76
2021/04/12 01:06:58;;;;;;;1.83;1.73;;;6.40;99.90;;;;;;4729500;30;21129;-77
2021/04/12 01:09:49;;;;;;;1.90;1.80;;;6.40;99.90;;;;;;4727700;30;20414;-77
2021/04/12 01:12:20;;;;;;;1.80;1.70;;;6.30;99.90;;;;;;4721147;30;20418;-77
2021/04/12 01:15:10;;;;;;;2.08;1.77;;;6.20;99.90;;;;;;4747611;30;25397;-75
2021/04/12 01:17:55;;;;;;;2.28;2.17;;;6.20;99.90;;;;;;4729956;30;20429;-77
2021/04/12 01:20:53;;;;;;;1.70;1.60;;;6.00;99.90;;;;;;4745249;30;20416;-76
2021/04/12 01:23:36;;;;;;;1.88;1.77;;;6.00;99.90;;;;;;4742384;30;20910;-77
2021/04/12 01:26:21;;;;;;;1.98;1.88;;;6.00;99.90;;;;;;4707732;30;20433;-77
2021/04/12 01:29:24;;;;;;;2.15;2.03;;;6.00;99.90;;;;;;4722174;30;20459;-77
2021/04/12 01:32:19;;;;;;;1.90;1.80;;;5.90;99.90;;;;;;4741073;30;20819;-77
2021/04/12 01:35:03;;;;;;;2.22;2.13;;;6.00;99.90;;;;;;4718561;30;20420;-77
2021/04/12 01:38:08;;;;;;;1.90;1.80;;;5.90;99.90;;;;;;4730382;30;20432;-76
2021/04/12 01:40:50;;;;;;;1.88;1.77;;;6.00;99.90;;;;;;4712825;30;20462;-76
2021/04/12 01:43:29;;;;;;;2.10;2.00;;;5.90;99.90;;;;;;4726105;30;20837;-76
2021/04/12 01:46:05;;;;;;;1.90;1.80;;;5.80;99.90;;;;;;4690618;30;20525;-77
2021/04/12 01:48:53;;;;;;;2.38;2.22;;;5.80;99.90;;;;;;4721915;30;20801;-76
2021/04/12 01:52:02;;;;;;;2.10;2.00;;;5.70;99.90;;;;;;4706081;30;20436;-76
2021/04/12 01:54:57;;;;;;;2.00;1.90;;;5.70;99.90;;;;;;4722685;30;21222;-77
2021/04/12 01:57:26;;;;;;;1.98;1.88;;;5.70;99.90;;;;;;4718236;30;20570;-76
2021/04/12 02:00:10;;;;;;;2.20;2.10;;;5.80;99.90;;;;;;4709733;30;20440;-77
2021/04/12 02:02:50;;;;;;;2.38;2.20;;;5.60;99.90;;;;;;4734408;30;20418;-76
2021/04/12 02:05:28;;;;;;;2.90;1.90;;;5.60;99.90;;;;;;4741863;30;20432;-77
2021/04/12 02:08:05;;;;;;;1.95;1.85;;;5.60;99.90;;;;;;4710994;30;20520;-75
2021/04/12 02:10:57;;;;;;;2.10;2.00;;;5.60;99.90;;;;;;4740515;30;20435;-75
2021/04/12 02:14:09;;;;;;;2.33;2.13;;;5.60;99.90;;;;;;4715903;30;20456;-76
2021/04/12 02:17:02;;;;;;;2.35;2.15;;;5.50;99.90;;;;;;4682265;30;20791;-75
2021/04/12 02:19:28;;;;;;;2.30;2.10;;;5.50;99.90;;;;;;4743082;30;20489;-76
2021/04/12 02:22:29;;;;;;;1.97;1.87;;;5.40;99.90;;;;;;4718173;30;20428;-76
2021/04/12 02:25:04;;;;;;;1.88;1.75;;;5.40;99.90;;;;;;4718283;30;20420;-76
2021/04/12 02:28:07;;;;;;;2.00;1.90;;;5.10;99.90;;;;;;4733593;30;20427;-77
2021/04/12 02:30:39;;;;;;;1.90;1.80;;;5.20;99.90;;;;;;4728550;30;20432;-77
2021/04/12 02:33:37;;;;;;;1.90;1.80;;;5.30;99.90;;;;;;4719559;30;20797;-77
2021/04/12 02:36:13;;;;;;;2.00;1.90;;;5.30;99.90;;;;;;4709941;30;20490;-77
2021/04/12 02:38:59;;;;;;;1.92;1.80;;;5.40;99.90;;;;;;4718556;30;20509;-77
2021/04/12 02:42:01;;;;;;;2.08;1.98;;;5.30;99.90;;;;;;4714989;30;20431;-77
2021/04/12 02:45:04;;;;;;;2.45;1.98;;;5.30;99.90;;;;;;4707171;30;20422;-78
2021/04/12 02:48:08;;;;;;;2.85;1.92;;;5.20;99.90;;;;;;4742722;30;20509;-77
2021/04/12 02:50:52;;;;;;;1.80;1.70;;;5.20;99.90;;;;;;4718203;30;20509;-77
2021/04/12 02:53:57;;;;;;;1.98;1.70;;;5.10;99.90;;;;;;4719608;30;20485;-77
2021/04/12 02:56:26;;;;;;;1.75;1.65;;;5.10;99.90;;;;;;4725420;30;20966;-78
2021/04/12 02:59:13;;;;;;;1.75;1.65;;;5.20;99.90;;;;;;4700343;30;20441;-77
2021/04/12 03:02:04;;;;;;;1.90;1.80;;;5.10;99.90;;;;;;4710948;30;20418;-77
2021/04/12 03:05:06;;;;;;;1.98;1.88;;;5.10;99.90;;;;;;4705651;30;20463;-77
2021/04/12 03:07:50;;;;;;;2.00;1.90;;;5.10;99.90;;;;;;4714661;30;20426;-78
2021/04/12 03:10:16;;;;;;;2.00;1.80;;;5.10;99.90;;;;;;4739865;30;20426;-76
2021/04/12 03:12:54;;;;;;;1.75;1.65;;;5.10;99.90;;;;;;4724675;30;20448;-77
2021/04/12 03:15:50;;;;;;;1.67;1.57;;;5.10;99.90;;;;;;4707204;30;20496;-76
2021/04/12 03:18:44;;;;;;;1.80;1.70;;;5.10;99.90;;;;;;4700702;30;20430;-77
2021/04/12 03:21:48;;;;;;;1.80;1.70;;;5.10;99.90;;;;;;4727903;30;20455;-77
2021/04/12 03:24:35;;;;;;;1.80;1.70;;;5.00;99.90;;;;;;4673758;30;20553;-77
2021/04/12 03:27:28;;;;;;;2.00;1.90;;;5.00;99.90;;;;;;4726893;30;20411;-77
2021/04/12 03:30:10;;;;;;;1.90;1.80;;;4.90;99.90;;;;;;4730579;30;20417;-77
2021/04/12 03:32:57;;;;;;;1.95;1.85;;;4.80;99.90;;;;;;4721981;30;20489;-76
2021/04/12 03:35:55;;;;;;;2.22;2.03;;;4.80;99.90;;;;;;4716325;30;20420;-77
2021/04/12 03:38:33;;;;;;;2.15;1.95;;;4.80;99.90;;;;;;4718654;30;20489;-77
2021/04/12 03:41:04;;;;;;;2.37;2.10;;;4.90;99.90;;;;;;4713298;30;20424;-77
2021/04/12 03:44:07;;;;;;;2.42;2.25;;;4.80;99.90;;;;;;4737351;30;20911;-77
2021/04/12 03:46:47;;;;;;;2.17;2.08;;;4.70;99.90;;;;;;4744132;30;20432;-78
2021/04/12 03:49:13;;;;;;;2.17;2.08;;;4.70;99.90;;;;;;4715723;30;21146;-77
2021/04/12 03:52:09;;;;;;;2.22;2.03;;;4.60;99.90;;;;;;4711425;30;20424;-77
2021/04/12 03:54:53;;;;;;;2.40;2.20;;;4.60;99.90;;;;;;4727403;30;20478;-77
2021/04/12 03:57:50;;;;;;;2.20;2.10;;;4.60;99.90;;;;;;4729706;30;20431;-77
2021/04/12 04:00:44;;;;;;;2.33;2.13;;;4.70;99.90;;;;;;4725096;30;20511;-77
2021/04/12 04:03:31;;;;;;;2.00;1.90;;;4.60;99.90;;;;;;4705332;30;20424;-77
2021/04/12 04:06:18;;;;;;;2.13;2.00;;;4.60;99.90;;;;;;4733024;30;20468;-77
2021/04/12 04:09:08;;;;;;;2.23;2.10;;;4.60;99.90;;;;;;4747558;30;20421;-77
2021/04/12 04:11:44;;;;;;;2.10;2.00;;;4.50;99.90;;;;;;4717015;30;20495;-76
2021/04/12 04:14:31;;;;;;;2.40;2.20;;;4.60;99.90;;;;;;4732066;30;20424;-77
2021/04/12 04:17:47;;;;;;;2.60;2.40;;;4.60;99.90;;;;;;4729593;30;20515;-78
2021/04/12 04:20:35;;;;;;;2.30;2.10;;;4.50;99.90;;;;;;4700671;30;20418;-76
2021/04/12 04:23:25;;;;;;;2.47;2.28;;;4.50;99.90;;;;;;4734143;30;20799;-77
2021/04/12 04:26:15;;;;;;;2.53;2.33;;;4.40;99.90;;;;;;4752319;30;20416;-77
2021/04/12 04:28:57;;;;;;;2.13;2.03;;;4.40;99.90;;;;;;4716364;30;20420;-77
2021/04/12 04:31:47;;;;;;;2.30;2.10;;;4.40;99.90;;;;;;4743738;30;20417;-77
2021/04/12 04:34:15;;;;;;;2.50;2.30;;;4.40;99.90;;;;;;4705189;30;20884;-76
2021/04/12 04:36:44;;;;;;;2.65;2.45;;;4.50;99.90;;;;;;4724244;30;20490;-76
2021/04/12 04:39:18;;;;;;;2.20;2.10;;;4.50;99.90;;;;;;4727225;30;20434;-76
2021/04/12 04:41:58;;;;;;;2.60;2.40;;;4.40;99.90;;;;;;4708082;30;20632;-77
2021/04/12 04:44:30;;;;;;;2.45;2.20;;;4.40;99.90;;;;;;4702310;30;20443;-77
2021/04/12 04:47:20;;;;;;;2.20;2.10;;;4.40;99.90;;;;;;4698271;30;20422;-77
2021/04/12 04:50:23;;;;;;;2.15;2.05;;;4.40;99.90;;;;;;4730879;30;20424;-76
2021/04/12 04:53:26;;;;;;;2.63;2.40;;;4.40;99.90;;;;;;4741161;30;20522;-76
2021/04/12 04:56:00;;;;;;;2.60;2.40;;;4.40;99.90;;;;;;4723239;30;20449;-76
2021/04/12 04:58:44;;;;;;;3.17;2.43;;;4.30;99.90;;;;;;4739641;30;20926;-76
2021/04/12 05:01:30;;;;;;;2.17;2.05;;;4.30;99.90;;;;;;4725414;30;20557;-77
2021/04/12 05:04:33;;;;;;;2.50;2.30;;;4.20;99.90;;;;;;4714176;30;20464;-77
2021/04/12 05:07:34;;;;;;;2.50;2.30;;;4.30;99.90;;;;;;4726596;30;20464;-77
2021/04/12 05:10:15;;;;;;;2.17;2.08;;;4.30;99.90;;;;;;4725325;30;20514;-76
2021/04/12 05:12:54;;;;;;;2.25;2.15;;;4.30;99.90;;;;;;4715864;30;20790;-77
2021/04/12 05:15:24;;;;;;;2.22;2.13;;;4.20;99.90;;;;;;4726302;30;20484;-76
2021/04/12 05:18:14;;;;;;;2.22;2.05;;;4.10;99.90;;;;;;4705315;30;20432;-76
2021/04/12 05:20:39;;;;;;;2.42;2.22;;;4.10;99.90;;;;;;4712150;30;20426;-75
2021/04/12 05:23:17;;;;;;;2.10;2.00;;;4.00;99.90;;;;;;4723686;30;20426;-76
2021/04/12 05:26:06;;;;;;;2.40;2.20;;;4.00;99.90;;;;;;4744673;30;20870;-75
2021/04/12 05:29:04;;;;;;;1.92;1.83;;;4.00;99.90;;;;;;4714217;30;20458;-75
2021/04/12 05:31:51;;;;;;;2.13;1.92;;;3.90;99.90;;;;;;4698286;30;20434;-76
2021/04/12 05:34:45;;;;;;;2.42;2.30;;;3.90;99.90;;;;;;4709231;30;20515;-75
2021/04/12 05:37:38;;;;;;;2.10;2.00;;;3.90;99.90;;;;;;4704170;30;20436;-76
2021/04/12 05:40:37;;;;;;;2.30;2.20;;;3.90;99.90;;;;;;4732675;30;20918;-76
2021/04/12 05:43:03;;;;;;;2.67;2.47;;;3.90;99.90;;;;;;4731208;30;20544;-76
2021/04/12 05:45:38;;;;;;;2.83;2.63;;;4.00;99.90;;;;;;4729692;30;20864;-75
2021/04/12 05:48:32;;;;;;;2.47;2.28;;;3.90;99.90;;;;;;4727282;30;20434;-76
2021/04/12 05:51:05;;;;;;;2.80;2.60;;;3.70;99.90;;;;;;4741789;30;20424;-76
2021/04/12 05:53:54;;;;;;;3.17;2.90;;;3.70;99.90;;;;;;4723622;30;20417;-76
2021/04/12 05:56:53;;;;;;;2.70;2.50;;;3.70;99.90;;;;;;4731286;30;20432;-76
2021/04/12 05:59:38;;;;;;;2.83;2.63;;;3.70;99.90;;;;;;4744984;30;20503;-75
2021/04/12 06:02:22;;;;;;;3.00;2.80;;;3.70;99.90;;;;;;4736558;30;20478;-75
2021/04/12 06:04:51;;;;;;;2.60;2.40;;;3.70;99.90;;;;;;4727069;30;20422;-75
2021/04/12 06:07:32;;;;;;;2.78;2.58;;;3.70;99.90;;;;;;4712821;30;20829;-75
2021/04/12 06:10:12;;;;;;;2.45;2.33;;;3.70;99.90;;;;;;4730098;30;20427;-74
2021/04/12 06:13:06;;;;;;;2.30;2.15;;;3.60;99.90;;;;;;4717452;30;20412;-74
2021/04/12 06:16:01;;;;;;;2.05;1.95;;;3.60;99.90;;;;;;4732713;30;20567;-73
2021/04/12 06:19:04;;;;;;;2.40;2.20;;;3.50;99.90;;;;;;4712350;30;20836;-74
2021/04/12 06:21:42;;;;;;;2.22;2.03;;;3.40;99.90;;;;;;4746188;30;20439;-74
2021/04/12 06:24:32;;;;;;;2.05;1.95;;;3.40;99.90;;;;;;4729958;30;20425;-74
2021/04/12 06:27:28;;;;;;;2.10;2.00;;;3.20;99.90;;;;;;4719914;30;20417;-74
2021/04/12 06:30:05;;;;;;;2.10;2.00;;;3.30;99.90;;;;;;4727186;30;20427;-74
2021/04/12 06:33:09;;;;;;;2.10;2.00;;;3.20;99.90;;;;;;4730905;30;20790;-74
2021/04/12 06:36:00;;;;;;;2.10;2.00;;;3.30;99.90;;;;;;4728846;30;20420;-74
2021/04/12 06:38:31;;;;;;;2.10;2.00;;;3.30;99.90;;;;;;4691084;30;20418;-74
2021/04/12 06:41:16;;;;;;;2.10;2.00;;;3.30;99.90;;;;;;4715848;30;21005;-74
2021/04/12 06:43:56;;;;;;;3.53;2.20;;;3.20;99.90;;;;;;4716382;30;20468;-74
2021/04/12 06:46:44;;;;;;;2.40;2.20;;;3.10;99.90;;;;;;4732058;30;20424;-73
2021/04/12 06:49:36;;;;;;;2.40;2.20;;;3.10;99.90;;;;;;4729319;30;20408;-74
2021/04/12 06:52:20;;;;;;;1.90;1.80;;;3.20;99.90;;;;;;4725747;30;20429;-73
2021/04/12 06:55:13;;;;;;;2.40;2.20;;;3.20;99.90;;;;;;4714783;30;20501;-73
2021/04/12 06:58:16;;;;;;;1.92;1.83;;;3.20;99.90;;;;;;4745621;30;20428;-73
2021/04/12 07:00:57;;;;;;;2.10;2.00;;;3.20;99.90;;;;;;4741442;30;20452;-74
2021/04/12 07:04:01;;;;;;;1.85;1.75;;;3.20;99.90;;;;;;4697948;30;20425;-74
2021/04/12 07:06:39;;;;;;;1.90;1.80;;;3.10;99.90;;;;;;4731599;30;20436;-74
2021/04/12 07:09:22;;;;;;;2.00;1.90;;;3.10;99.90;;;;;;4732176;30;20436;-73
2021/04/12 07:12:02;;;;;;;2.00;1.90;;;3.00;99.90;;;;;;4738100;30;20561;-74
2021/04/12 07:14:51;;;;;;;2.22;2.03;;;2.80;99.90;;;;;;4725995;30;20495;-73
2021/04/12 07:17:45;;;;;;;2.20;2.10;;;2.80;99.90;;;;;;4690087;30;20755;-74
2021/04/12 07:20:22;;;;;;;2.45;2.10;;;2.70;99.90;;;;;;4729050;30;20416;-73
2021/04/12 07:22:51;;;;;;;1.88;1.77;;;2.70;99.90;;;;;;4722342;30;20444;-74
2021/04/12 07:25:41;;;;;;;2.00;1.90;;;2.50;99.90;;;;;;4748781;30;20495;-74
2021/04/12 07:28:26;;;;;;;2.10;2.00;;;2.40;99.90;;;;;;4709510;30;20426;-74
2021/04/12 07:30:51;;;;;;;2.00;1.90;;;2.10;99.90;;;;;;4745948;30;20748;-75
2021/04/12 07:33:29;;;;;;;2.03;1.90;;;2.00;99.90;;;;;;4732049;30;20423;-75
2021/04/12 07:36:03;;;;;;;2.38;2.17;;;2.00;99.90;;;;;;4718280;30;20943;-77
2021/04/12 07:38:53;;;;;;;2.58;2.15;;;1.90;99.90;;;;;;4730300;30;20411;-75
2021/04/12 07:42:04;;;;;;;3.13;2.10;;;1.90;99.90;;;;;;4743889;30;20417;-77
2021/04/12 07:44:45;;;;;;;2.10;2.00;;;1.80;99.90;;;;;;4717214;30;20447;-79
2021/04/12 07:47:45;;;;;;;2.30;2.15;;;1.80;99.90;;;;;;4731927;30;20449;-77
2021/04/12 07:50:47;;;;;;;2.30;2.10;;;1.80;99.90;;;;;;4733275;30;20459;-78
2021/04/12 07:53:37;;;;;;;3.03;2.30;;;1.70;99.90;;;;;;4730777;30;20844;-77
2021/04/12 07:56:11;;;;;;;2.22;2.13;;;1.70;99.90;;;;;;4728507;30;20939;-78
2021/04/12 07:58:56;;;;;;;2.25;2.10;;;1.70;99.90;;;;;;4710448;30;20428;-79
2021/04/12 08:01:44;;;;;;;2.30;2.10;;;1.60;99.90;;;;;;4717482;30;20448;-78
2021/04/12 08:04:22;;;;;;;2.00;1.90;;;1.60;99.90;;;;;;4748848;30;20785;-78
2021/04/12 08:06:47;;;;;;;2.00;1.90;;;1.60;99.90;;;;;;4738096;30;20915;-77
2021/04/12 08:09:32;;;;;;;2.53;2.20;;;1.60;99.90;;;;;;4728303;30;20434;-77
2021/04/12 08:12:13;;;;;;;2.05;1.95;;;1.60;99.90;;;;;;4740437;30;20442;-78
2021/04/12 08:15:14;;;;;;;2.38;2.17;;;1.60;99.90;;;;;;4749734;30;20429;-77
2021/04/12 08:18:00;;;;;;;2.20;2.10;;;1.70;99.90;;;;;;4715605;30;20435;-77
2021/04/12 08:20:49;;;;;;;4.28;2.55;;;1.70;99.90;;;;;;4716706;30;21028;-77
2021/04/12 08:23:33;;;;;;;3.60;3.30;;;1.70;99.90;;;;;;4742462;30;20461;-77
2021/04/12 08:26:07;;;;;;;4.45;3.45;;;1.70;99.90;;;;;;4729013;30;20429;-77
2021/04/12 08:28:57;;;;;;;4.10;2.92;;;1.70;99.90;;;;;;4734705;30;20490;-77
2021/04/12 08:31:41;;;;;;;2.65;2.45;;;1.70;99.90;;;;;;4746234;30;20427;-77
2021/04/12 08:34:45;;;;;;;2.10;2.00;;;1.70;99.90;;;;;;4739618;30;20511;-77
2021/04/12 08:37:13;;;;;;;2.33;2.13;;;1.80;99.90;;;;;;4710844;30;20861;-77
2021/04/12 08:39:55;;;;;;;2.10;2.00;;;1.90;99.90;;;;;;4740524;30;20448;-77
2021/04/12 08:42:32;;;;;;;2.72;2.47;;;2.10;99.90;;;;;;4716885;30;20432;-77
2021/04/12 08:45:19;;;;;;;2.28;1.90;;;2.00;99.90;;;;;;4748381;30;20431;-77
2021/04/12 08:48:12;;;;;;;2.40;1.75;;;2.10;99.90;;;;;;4729758;30;20460;-77
2021/04/12 08:50:49;;;;;;;1.90;1.80;;;2.20;99.90;;;;;;4718007;30;20433;-77
2021/04/12 08:53:36;;;;;;;1.70;1.58;;;2.30;99.90;;;;;;4723032;30;20503;-77
2021/04/12 08:56:17;;;;;;;1.90;1.80;;;2.40;99.90;;;;;;4742880;30;20474;-77
2021/04/12 08:59:04;;;;;;;1.80;1.70;;;2.50;99.90;;;;;;4703148;30;20519;-78
2021/04/12 09:01:52;;;;;;;1.77;1.67;;;2.50;99.90;;;;;;4712843;30;20582;-79
2021/04/12 09:04:42;;;;;;;1.93;1.83;;;2.60;99.90;;;;;;4731526;30;20446;-79
2021/04/12 09:07:23;;;;;;;2.10;2.00;;;2.70;99.90;;;;;;4730105;30;20496;-78
2021/04/12 09:10:10;;;;;;;2.90;2.70;;;2.80;99.90;;;;;;4701465;30;20787;-79
2021/04/12 09:12:53;;;;;;;2.50;2.30;;;2.90;99.90;;;;;;4725834;30;20428;-78
2021/04/12 09:15:25;;;;;;;3.05;2.85;;;3.00;99.90;;;;;;4748254;30;20440;-77
2021/04/12 09:18:08;;;;;;;2.00;1.90;;;3.10;99.90;;;;;;4727204;30;20459;-78
2021/04/12 09:21:21;;;;;;;2.15;1.95;;;3.10;99.90;;;;;;4746455;30;20514;-78
2021/04/12 09:24:07;;;;;;;2.45;2.25;;;3.20;99.90;;;;;;4706632;30;20416;-79
2021/04/12 09:26:38;;;;;;;3.83;3.47;;;3.20;99.90;;;;;;4732757;30;20455;-79
2021/04/12 09:29:45;;;;;;;6.77;4.50;;;3.20;99.90;;;;;;4718501;30;20532;-78
2021/04/12 09:32:35;;;;;;;3.20;2.90;;;3.30;99.90;;;;;;4719626;30;20437;-79
2021/04/12 09:35:30;;;;;;;3.13;2.90;;;3.40;99.90;;;;;;4717603;30;20421;-79
2021/04/12 09:38:01;;;;;;;2.50;2.30;;;3.60;99.90;;;;;;4706009;30;20432;-79
2021/04/12 09:40:57;;;;;;;2.50;2.30;;;3.60;99.90;;;;;;4731066;30;20802;-79
2021/04/12 09:43:46;;;;;;;4.43;4.00;;;3.70;99.90;;;;;;4716347;30;20440;-79
2021/04/12 09:46:39;;;;;;;2.78;2.58;;;3.80;99.90;;;;;;4726359;30;20444;-78
2021/04/12 09:49:42;;;;;;;2.45;2.25;;;3.90;99.90;;;;;;4730601;30;20432;-79
2021/04/12 09:52:31;;;;;;;2.42;2.15;;;3.90;99.90;;;;;;4747226;30;20463;-79
2021/04/12 09:55:19;;;;;;;2.50;2.30;;;3.80;99.90;;;;;;4732970;30;20434;-79
2021/04/12 09:58:22;;;;;;;7.55;2.50;;;3.90;99.90;;;;;;4718162;30;20899;-79
2021/04/12 10:00:55;;;;;;;2.58;2.38;;;3.90;99.90;;;;;;4713832;30;20434;-79
2021/04/12 10:03:46;;;;;;;3.08;2.78;;;4.00;99.90;;;;;;4715295;30;20491;-79
2021/04/12 10:06:19;;;;;;;3.00;2.70;;;4.10;99.90;;;;;;4715108;30;20441;-79
2021/04/12 10:09:09;;;;;;;2.70;2.50;;;4.10;99.90;;;;;;4715964;30;20418;-79
2021/04/12 10:12:06;;;;;;;3.20;2.90;;;4.20;99.90;;;;;;4715951;30;20465;-79
2021/04/12 10:14:35;;;;;;;3.33;3.03;;;4.30;99.90;;;;;;4715518;30;20452;-79
2021/04/12 10:17:07;;;;;;;4.40;3.53;;;4.30;99.90;;;;;;4701567;30;20437;-78
2021/04/12 10:19:49;;;;;;;3.47;3.00;;;4.40;99.90;;;;;;4708438;30;20425;-80
2021/04/12 10:22:42;;;;;;;3.17;2.97;;;4.50;99.90;;;;;;4701198;30;20433;-79
2021/04/12 10:25:37;;;;;;;3.15;2.88;;;4.50;99.90;;;;;;4726630;30;20477;-79
2021/04/12 10:28:35;;;;;;;3.35;3.05;;;4.60;99.90;;;;;;4701507;30;20922;-79
2021/04/12 10:31:05;;;;;;;4.28;3.38;;;4.60;99.90;;;;;;4701442;30;20428;-79
2021/04/12 10:33:45;;;;;;;3.67;3.03;;;4.60;99.90;;;;;;4719224;30;20486;-79
2021/04/12 10:36:31;;;;;;;3.33;2.78;;;4.70;99.90;;;;;;4680304;30;20456;-79
2021/04/12 10:39:23;;;;;;;2.70;2.50;;;4.60;99.90;;;;;;4686641;30;20913;-79
2021/04/12 10:41:52;;;;;;;2.63;2.42;;;4.70;99.90;;;;;;4690676;30;20422;-80
2021/04/12 10:44:45;;;;;;;2.50;2.30;;;4.80;99.90;;;;;;4719176;30;20548;-79
2021/04/12 10:47:23;;;;;;;2.53;2.33;;;5.00;99.90;;;;;;4721055;30;20813;-80
2021/04/12 10:49:51;;;;;;;2.30;2.20;;;5.10;99.90;;;;;;4736213;30;20444;-79
2021/04/12 10:52:35;;;;;;;2.00;1.90;;;5.00;99.90;;;;;;4718372;30;20424;-79
2021/04/12 10:55:20;;;;;;;1.98;1.80;;;5.20;99.90;;;;;;4739249;30;20424;-80
2021/04/12 10:58:10;;;;;;;2.20;2.10;;;5.20;99.90;;;;;;4718055;30;20430;-80
2021/04/12 11:00:42;;;;;;;2.58;2.38;;;5.30;99.90;;;;;;4716503;30;20581;-80
2021/04/12 11:03:11;;;;;;;2.30;2.20;;;5.30;99.90;;;;;;4732482;30;20477;-80
2021/04/12 11:05:36;;;;;;;2.47;2.28;;;5.30;99.90;;;;;;4735476;30;20416;-80
2021/04/12 11:08:06;;;;;;;2.90;2.00;;;5.40;99.90;;;;;;4715619;30;20427;-80
2021/04/12 11:10:56;;;;;;;2.20;2.10;;;5.50;99.90;;;;;;4734984;30;20485;-80
2021/04/12 11:13:34;;;;;;;2.43;2.23;;;5.50;99.90;;;;;;4736781;30;20449;-80
2021/04/12 11:16:06;;;;;;;3.05;2.20;;;5.60;99.90;;;;;;4721543;30;20428;-80
2021/04/12 11:18:51;;;;;;;2.53;2.33;;;5.70;99.90;;;;;;4736301;30;20980;-79
2021/04/12 11:21:20;;;;;;;2.30;2.10;;;5.80;99.90;;;;;;4723546;30;20432;-79
2021/04/12 11:24:06;;;;;;;2.23;2.07;;;5.90;99.90;;;;;;4735885;30;20419;-79
2021/04/12 11:26:35;;;;;;;2.63;2.42;;;5.90;99.90;;;;;;4736032;30;20949;-79
2021/04/12 11:29:30;;;;;;;2.37;2.17;;;6.10;99.90;;;;;;4751633;30;20486;-79
2021/04/12 11:36:20;;;;;;;2.33;2.10;;;6.60;99.90;;;;;;4745779;30;20937;-79
2021/04/12 11:38:53;;;;;;;2.17;1.97;;;6.70;99.90;;;;;;4738222;30;20424;-78
2021/04/12 11:41:35;;;;;;;1.93;1.83;;;6.70;99.90;;;;;;4744683;30;20503;-79
2021/04/12 11:44:02;;;;;;;2.00;1.77;;;6.60;99.90;;;;;;4732788;30;20416;-79
2021/04/12 11:47:05;;;;;;;1.88;1.75;;;6.60;99.90;;;;;;4735549;30;20428;-79
2021/04/12 11:49:43;;;;;;;1.40;1.40;;;6.70;99.90;;;;;;4731060;30;20421;-79
2021/04/12 11:52:33;;;;;;;1.77;1.67;;;6.60;99.90;;;;;;4745463;30;20517;-78
2021/04/12 11:55:22;;;;;;;1.50;1.40;;;6.80;99.90;;;;;;4745981;30;20540;-79
2021/04/12 11:58:02;;;;;;;1.58;1.48;;;7.00;99.90;;;;;;4732742;30;20437;-79
2021/04/12 12:00:49;;;;;;;1.42;1.33;;;7.20;99.90;;;;;;4732642;30;20424;-78
2021/04/12 12:03:56;;;;;;;3.55;1.80;;;7.00;99.90;;;;;;4742122;30;20475;-79
2021/04/12 12:06:21;;;;;;;2.80;1.55;;;7.00;99.90;;;;;;4740731;30;20424;-79
2021/04/12 12:09:15;;;;;;;3.10;1.30;;;7.00;99.90;;;;;;4746700;30;20420;-79
2021/04/12 12:12:13;;;;;;;1.23;1.20;;;7.20;99.90;;;;;;4744683;30;20460;-78
2021/04/12 12:14:53;;;;;;;1.80;1.30;;;7.20;99.90;;;;;;4743469;30;20448;-79
2021/04/12 12:17:25;;;;;;;1.45;1.33;;;7.10;99.90;;;;;;4731685;30;20436;-79
2021/04/12 12:19:57;;;;;;;1.20;1.20;;;7.10;99.90;;;;;;4753054;30;20475;-79
2021/04/12 12:22:42;;;;;;;1.30;1.20;;;7.10;99.90;;;;;;4733298;30;20416;-78
2021/04/12 12:25:11;;;;;;;1.47;1.37;;;7.20;99.90;;;;;;4745366;30;20431;-77
2021/04/12 12:27:39;;;;;;;1.50;1.40;;;7.10;99.90;;;;;;4743514;30;20462;-78
2021/04/12 12:30:22;;;;;;;1.20;1.10;;;7.30;99.90;;;;;;4717227;30;20497;-78
2021/04/12 12:32:58;;;;;;;1.00;1.00;;;7.20;99.90;;;;;;4731932;30;20914;-79
2021/04/12 12:35:53;;;;;;;1.88;1.00;;;7.20;99.90;;;;;;4732294;30;20436;-80
2021/04/12 12:38:46;;;;;;;1.52;1.42;;;7.10;99.90;;;;;;4722721;30;20424;-79
2021/04/12 12:41:16;;;;;;;1.50;1.40;;;7.10;99.90;;;;;;4735097;30;20423;-78
2021/04/12 12:43:42;;;;;;;1.33;1.23;;;7.20;99.90;;;;;;4746664;30;20469;-78
2021/04/12 12:46:15;;;;;;;1.40;1.25;;;7.10;99.90;;;;;;4732666;30;20462;-80
2021/04/12 12:49:02;;;;;;;1.13;1.05;;;7.10;99.90;;;;;;4733518;30;20788;-79
2021/04/12 12:51:32;;;;;;;1.02;1.02;;;7.00;99.90;;;;;;4745824;30;20421;-78
2021/04/12 12:54:02;;;;;;;1.00;1.00;;;7.00;99.90;;;;;;4746819;30;20409;-78
2021/04/12 12:56:28;;;;;;;1.13;1.13;;;7.00;99.90;;;;;;4709131;30;20440;-78
2021/04/12 12:59:25;;;;;;;1.30;1.20;;;6.90;99.90;;;;;;4728843;30;20428;-79
2021/04/12 13:01:51;;;;;;;1.10;1.10;;;7.10;99.90;;;;;;4736002;30;20424;-79
2021/04/12 13:04:25;;;;;;;1.30;1.20;;;7.20;99.90;;;;;;4721566;30;20507;-77
2021/04/12 13:06:52;;;;;;;1.42;1.20;;;7.30;99.90;;;;;;4712135;30;20424;-78
2021/04/12 13:09:26;;;;;;;1.60;1.50;;;7.30;99.90;;;;;;4731021;30;20409;-77
2021/04/12 13:11:57;;;;;;;1.80;1.35;;;7.20;99.90;;;;;;4731254;30;20412;-78
2021/04/12 13:14:43;;;;;;;1.73;1.23;;;7.20;99.90;;;;;;4740295;30;20425;-79
2021/04/12 13:17:31;;;;;;;0.95;0.95;;;7.20;99.90;;;;;;4738267;30;20943;-79
2021/04/12 13:20:23;;;;;;;1.30;1.20;;;7.20;99.90;;;;;;4733088;30;20447;-78
2021/04/12 13:22:51;;;;;;;2.05;1.30;;;7.20;99.90;;;;;;4735144;30;20482;-78
2021/04/12 13:25:36;;;;;;;1.08;1.08;;;7.10;99.90;;;;;;4729007;30;20456;-78
2021/04/12 13:28:08;;;;;;;2.50;1.17;;;7.00;99.90;;;;;;4742959;30;20425;-77
2021/04/12 13:30:34;;;;;;;1.20;1.10;;;6.90;99.90;;;;;;4728225;30;20515;-77
2021/04/12 13:33:08;;;;;;;1.10;1.10;;;6.70;99.90;;;;;;4715938;30;20421;-78
2021/04/12 13:35:35;;;;;;;0.90;0.90;;;6.50;99.90;;;;;;4730881;30;21286;-78
2021/04/12 13:38:05;;;;;;;2.28;1.20;;;6.60;99.90;;;;;;4748001;30;20557;-77
2021/04/12 13:40:48;;;;;;;1.47;1.10;;;6.60;99.90;;;;;;4744535;30;20905;-77
2021/04/12 13:43:14;;;;;;;1.63;1.07;;;6.70;99.90;;;;;;4745560;30;20425;-78
2021/04/12 13:45:42;;;;;;;2.17;1.10;;;6.60;99.90;;;;;;4731368;30;20429;-77
2021/04/12 13:48:21;;;;;;;0.90;0.90;;;6.50;99.90;;;;;;4728607;30;20421;-78
2021/04/12 13:50:52;;;;;;;1.30;1.20;;;6.40;99.90;;;;;;4741737;30;20436;-78
2021/04/12 13:53:48;;;;;;;1.55;1.15;;;6.30;99.90;;;;;;4719268;30;20477;-79
2021/04/12 13:56:14;;;;;;;2.05;1.40;;;6.50;99.90;;;;;;4743978;30;20483;-79
2021/04/12 13:58:42;;;;;;;1.02;1.00;;;6.60;99.90;;;;;;4747418;30;20426;-78
2021/04/12 14:01:14;;;;;;;0.88;0.88;;;6.60;99.90;;;;;;4732324;30;20416;-77
2021/04/12 14:03:53;;;;;;;1.10;1.00;;;6.70;99.90;;;;;;4748407;30;20921;-79
2021/04/12 14:06:26;;;;;;;1.75;1.25;;;6.60;99.90;;;;;;4747930;30;20485;-78
2021/04/12 14:08:53;;;;;;;1.77;1.20;;;6.60;99.90;;;;;;4734237;30;20429;-78
2021/04/12 14:11:51;;;;;;;2.30;1.40;;;6.70;99.90;;;;;;4730145;30;20432;-77
2021/04/12 14:14:25;;;;;;;0.95;0.95;;;6.80;99.90;;;;;;4742743;30;20450;-77
2021/04/12 14:17:24;;;;;;;0.93;0.93;;;6.90;99.90;;;;;;4718535;30;20488;-77
2021/04/12 14:19:51;;;;;;;1.45;1.27;;;6.90;99.90;;;;;;4710256;30;20444;-77
2021/04/12 14:22:26;;;;;;;1.33;1.20;;;6.90;99.90;;;;;;4729805;30;20428;-77
2021/04/12 14:24:54;;;;;;;1.55;1.45;;;6.90;99.90;;;;;;4742646;30;20425;-76
2021/04/12 14:27:19;;;;;;;1.15;1.15;;;7.00;99.90;;;;;;4742664;30;20425;-76
2021/04/12 14:30:06;;;;;;;1.10;1.10;;;7.00;99.90;;;;;;4740342;30;20433;-77